createdAt,value
2023-01-30T00:01:30.527Z,22.00
2023-01-30T00:04:00.169Z,19.25
2023-01-30T00:06:28.959Z,22.67
2023-01-30T00:08:57.643Z,18.00
2023-01-30T00:11:28.867Z,18.50
2023-01-30T00:13:57.789Z,21.00
2023-01-30T00:16:26.583Z,24.00
2023-01-30T00:21:24.145Z,26.00
2023-01-30T00:23:53.137Z,21.50
2023-01-30T00:26:22.557Z,12.00
2023-01-30T00:44:03.104Z,19.00
2023-01-30T00:46:53.006Z,20.75
2023-01-30T00:49:21.885Z,18.00
2023-01-30T00:51:50.761Z,15.00
2023-01-30T00:54:19.350Z,24.00
2023-01-30T00:56:48.034Z,25.00
2023-01-30T00:59:17.029Z,18.00
2023-01-30T01:01:47.311Z,26.00
2023-01-30T01:04:16.137Z,18.67
2023-01-30T01:06:44.827Z,22.50
2023-01-30T01:09:14.730Z,21.00
2023-01-30T01:11:43.536Z,20.50
2023-01-30T01:14:12.513Z,30.00
2023-01-30T01:16:41.651Z,21.50
2023-01-30T01:19:10.294Z,21.00
2023-01-30T01:21:38.980Z,24.00
2023-01-30T01:24:12.075Z,27.50
2023-01-30T01:26:41.960Z,26.00
2023-01-30T01:29:15.185Z,14.00
2023-01-30T01:31:45.083Z,23.00
2023-01-30T01:36:53.930Z,18.00
2023-01-30T01:49:25.958Z,16.00
2023-01-30T01:57:18.533Z,10.00
2023-01-30T01:59:59.712Z,30.00
2023-01-30T02:02:28.686Z,28.00
2023-01-30T02:05:02.477Z,16.00
2023-01-30T02:07:43.696Z,22.00
2023-01-30T02:10:21.384Z,19.00
2023-01-30T02:12:52.111Z,27.00
2023-01-30T02:15:22.453Z,15.00
2023-01-30T02:20:57.603Z,11.00
2023-01-30T04:21:42.219Z,36.00
2023-01-30T04:24:11.418Z,66.00
2023-01-30T04:26:40.340Z,75.50
2023-01-30T04:29:09.402Z,124.00
2023-01-30T04:31:39.285Z,108.00
2023-01-30T04:34:18.343Z,88.00
2023-01-30T04:36:47.130Z,52.00
2023-01-30T04:39:16.034Z,43.50
2023-01-30T04:41:44.822Z,46.50
2023-01-30T04:44:13.596Z,53.33
2023-01-30T04:46:53.853Z,39.00
2023-01-30T04:49:22.642Z,37.00
2023-01-30T04:51:51.940Z,37.00
2023-01-30T04:54:20.933Z,41.00
2023-01-30T04:56:49.617Z,41.00
2023-01-30T04:59:18.405Z,38.00
2023-01-30T05:01:47.671Z,31.00
2023-01-30T05:04:16.801Z,43.00
2023-01-30T05:06:45.383Z,39.50
2023-01-30T05:09:14.170Z,39.00
2023-01-30T05:11:42.762Z,47.67
2023-01-30T05:14:11.338Z,43.00
2023-01-30T05:16:40.021Z,33.00
2023-01-30T05:19:12.188Z,36.50
2023-01-30T05:21:40.672Z,37.00
2023-01-30T05:24:09.360Z,35.00
2023-01-30T05:26:38.700Z,38.50
2023-01-30T05:29:07.723Z,35.00
2023-01-30T05:31:36.465Z,50.00
2023-01-30T05:34:05.327Z,43.00
2023-01-30T05:36:34.114Z,46.00
2023-01-30T05:39:02.901Z,45.50
2023-01-30T05:41:31.690Z,42.00
2023-01-30T05:44:00.275Z,43.00
2023-01-30T05:46:29.011Z,35.33
2023-01-30T05:48:58.052Z,31.00
2023-01-30T05:51:28.066Z,43.00
2023-01-30T05:53:57.167Z,39.00
2023-01-30T05:56:26.153Z,38.50
2023-01-30T05:58:56.887Z,42.00
2023-01-30T06:01:26.199Z,42.00
2023-01-30T06:03:56.036Z,33.50
2023-01-30T06:06:25.309Z,35.67
2023-01-30T06:08:56.062Z,48.00
2023-01-30T06:11:25.231Z,32.00
2023-01-30T06:13:54.032Z,41.00
2023-01-30T06:16:23.044Z,38.67
2023-01-30T06:18:51.909Z,34.75
2023-01-30T06:21:21.611Z,31.25
2023-01-30T06:23:50.299Z,37.00
2023-01-30T06:26:19.122Z,21.00
2023-01-30T06:28:48.590Z,22.00
2023-01-30T06:38:44.559Z,27.50
2023-01-30T06:41:13.351Z,27.00
2023-01-30T06:43:42.851Z,21.00
2023-01-30T06:46:11.679Z,47.00
2023-01-30T06:48:40.427Z,56.33
2023-01-30T06:51:09.111Z,48.00
2023-01-30T06:53:37.899Z,48.00
2023-01-30T06:56:07.200Z,46.67
2023-01-30T06:58:35.889Z,47.00
2023-01-30T07:01:04.878Z,38.00
2023-01-30T07:03:33.563Z,46.00
2023-01-30T07:06:03.385Z,48.00
2023-01-30T07:08:32.267Z,37.00
2023-01-30T07:11:01.053Z,41.00
2023-01-30T07:13:29.846Z,45.50
2023-01-30T07:15:58.833Z,30.00
2023-01-30T07:18:27.829Z,34.00
2023-01-30T07:20:56.513Z,46.50
2023-01-30T07:23:25.732Z,26.33
2023-01-30T07:25:55.631Z,27.00
2023-01-30T07:28:24.321Z,42.00
2023-01-30T07:30:53.212Z,34.00
2023-01-30T07:33:22.090Z,25.50
2023-01-30T07:35:50.879Z,34.00
2023-01-30T07:38:19.564Z,37.00
2023-01-30T07:40:48.568Z,28.00
2023-01-30T07:43:17.342Z,32.00
2023-01-30T07:45:48.899Z,33.33
2023-01-30T07:48:19.821Z,30.67
2023-01-30T07:50:48.426Z,27.00
2023-01-30T07:53:20.993Z,41.00
2023-01-30T07:55:49.694Z,35.75
2023-01-30T07:58:18.484Z,119.00
2023-01-30T08:00:47.319Z,13.00
2023-01-30T08:13:13.955Z,29.50
2023-01-30T08:15:42.647Z,37.50
2023-01-30T08:25:37.177Z,61.00
2023-01-30T08:28:05.877Z,63.00
2023-01-30T08:30:34.682Z,60.00
2023-01-30T08:33:03.641Z,71.00
2023-01-30T08:35:32.634Z,51.50
2023-01-30T08:38:01.321Z,55.25
2023-01-30T08:40:30.212Z,55.00
2023-01-30T08:42:58.997Z,57.00
2023-01-30T08:45:28.403Z,68.50
2023-01-30T08:48:01.500Z,66.00
2023-01-30T08:50:30.993Z,71.00
2023-01-30T08:53:05.798Z,46.00
2023-01-30T08:55:35.027Z,29.00
2023-01-30T08:58:03.716Z,80.00
2023-01-30T09:00:32.495Z,69.50
2023-01-30T09:03:02.207Z,59.00
2023-01-30T09:05:30.990Z,74.50
2023-01-30T09:08:00.097Z,55.00
2023-01-30T09:10:29.935Z,69.00
2023-01-30T09:12:58.488Z,49.75
2023-01-30T09:15:27.270Z,71.00
2023-01-30T09:17:56.166Z,73.50
2023-01-30T09:20:25.939Z,67.67
2023-01-30T09:22:55.080Z,75.00
2023-01-30T09:25:23.749Z,52.00
2023-01-30T09:27:52.339Z,66.00
2023-01-30T09:30:21.446Z,75.00
2023-01-30T09:32:50.523Z,68.00
2023-01-30T09:35:19.313Z,57.00
2023-01-30T09:37:49.853Z,78.00
2023-01-30T14:13:19.302Z,18.50
2023-01-30T14:15:55.627Z,61.00
2023-01-30T14:18:34.059Z,49.33
2023-01-30T14:21:26.395Z,39.67
2023-01-30T14:24:04.221Z,54.00
2023-01-30T14:26:48.625Z,24.00
2023-01-30T14:29:42.148Z,22.50
2023-01-30T14:32:14.372Z,48.00
2023-01-30T14:34:45.516Z,37.00
2023-01-30T14:37:39.458Z,38.00
2023-01-30T14:40:23.898Z,32.00
2023-01-30T14:43:50.836Z,34.00
2023-01-30T14:46:21.607Z,41.00
2023-01-30T14:48:58.452Z,38.00
2023-01-30T14:51:44.472Z,38.33
2023-01-30T14:54:13.540Z,34.00
2023-01-30T14:56:54.437Z,44.67
2023-01-30T14:59:37.018Z,51.00
2023-01-30T15:02:15.089Z,50.00
2023-01-30T15:05:13.606Z,42.33
2023-01-30T15:07:51.402Z,40.00
2023-01-30T15:10:45.898Z,41.00
2023-01-30T15:13:19.802Z,51.00
2023-01-30T15:16:10.112Z,49.67
2023-01-30T15:19:19.025Z,50.33
2023-01-30T15:22:11.769Z,42.67
2023-01-30T15:25:08.311Z,49.67
2023-01-30T15:28:00.035Z,39.50
2023-01-30T15:31:05.749Z,46.00
2023-01-30T15:33:45.289Z,52.00
2023-01-30T15:36:28.965Z,37.50
2023-01-30T15:39:03.893Z,45.50
2023-01-30T15:41:42.856Z,41.33
2023-01-30T15:44:52.298Z,56.00
2023-01-30T15:47:56.582Z,45.50
2023-01-30T15:50:25.679Z,51.00
2023-01-30T15:52:56.818Z,40.00
2023-01-30T15:55:36.269Z,57.00
2023-01-30T15:58:09.864Z,52.00
2023-01-30T16:01:04.536Z,38.00
2023-01-30T16:03:38.977Z,36.00
2023-01-30T16:06:21.074Z,59.67
2023-01-30T16:09:07.063Z,57.00
2023-01-30T16:11:42.541Z,44.00
2023-01-30T16:14:16.831Z,49.00
2023-01-30T16:17:00.462Z,39.50
2023-01-30T16:19:30.889Z,48.00
2023-01-30T16:22:03.656Z,58.00
2023-01-30T16:24:36.153Z,39.00
2023-01-30T16:27:16.399Z,53.00
2023-01-30T16:29:53.279Z,56.00
2023-01-30T16:32:28.697Z,61.75
2023-01-30T16:35:27.417Z,58.50
2023-01-30T16:38:00.375Z,56.00
2023-01-30T16:40:44.029Z,59.33
2023-01-30T16:43:44.460Z,42.00
2023-01-30T16:46:41.416Z,54.67
2023-01-30T16:49:25.456Z,56.50
2023-01-30T16:52:17.895Z,52.00
2023-01-30T16:54:53.325Z,59.50
2023-01-30T16:57:42.615Z,56.00
2023-01-30T17:00:24.816Z,55.00
2023-01-30T17:02:59.159Z,64.00
2023-01-30T17:05:42.475Z,59.00
2023-01-30T17:08:33.272Z,60.00
2023-01-30T17:11:03.977Z,61.00
2023-01-30T17:13:36.919Z,62.00
2023-01-30T17:16:34.642Z,63.00
2023-01-30T17:19:03.752Z,58.50
2023-01-30T17:21:49.218Z,56.33
2023-01-30T17:24:23.762Z,59.00
2023-01-30T17:27:02.569Z,60.50
2023-01-30T17:29:42.561Z,51.50
2023-01-30T17:32:14.262Z,58.00
2023-01-30T17:34:43.163Z,61.50
2023-01-30T17:37:18.719Z,62.00
2023-01-30T17:39:47.697Z,59.00
2023-01-30T17:42:22.572Z,61.50
2023-01-30T17:44:51.415Z,57.00
2023-01-30T17:47:21.334Z,61.00
2023-01-30T17:49:50.013Z,58.00
2023-01-30T17:52:19.212Z,65.00
2023-01-30T17:54:47.904Z,57.50
2023-01-30T17:57:17.193Z,57.00
2023-01-30T18:02:15.489Z,62.00
2023-01-30T18:04:44.182Z,55.00
2023-01-30T18:07:14.908Z,61.50
2023-01-30T18:09:43.494Z,57.67
2023-01-30T18:12:12.187Z,64.00
2023-01-30T18:14:40.885Z,57.50
2023-01-30T18:17:09.997Z,66.00
2023-01-30T18:19:38.749Z,67.00
2023-01-30T18:22:07.531Z,58.00
2023-01-30T18:24:36.320Z,67.00
2023-01-30T18:27:04.902Z,70.75
2023-01-30T18:29:33.687Z,48.50
2023-01-30T18:56:54.144Z,33.50
2023-01-30T18:59:23.490Z,56.50
2023-01-30T19:01:52.127Z,65.00
2023-01-30T19:04:20.818Z,62.00
2023-01-30T19:06:49.705Z,67.00
2023-01-30T19:09:19.426Z,66.00
2023-01-30T19:12:07.044Z,61.50
2023-01-30T19:14:35.731Z,34.00
2023-01-30T19:17:04.519Z,40.50
2023-01-30T19:19:33.199Z,45.00
2023-01-30T19:22:01.889Z,42.50
2023-01-30T19:24:30.879Z,52.00
2023-01-30T19:26:59.674Z,51.00
2023-01-30T19:29:28.455Z,52.50
2023-01-30T19:31:57.305Z,48.50
2023-01-30T19:34:26.550Z,29.50
2023-01-30T19:36:55.227Z,48.00
2023-01-30T19:39:24.014Z,41.50
2023-01-30T19:41:52.704Z,30.00
2023-01-30T19:44:21.491Z,38.00
2023-01-30T19:46:50.283Z,40.50
2023-01-30T19:49:18.968Z,51.50
2023-01-30T19:51:47.749Z,49.00
2023-01-30T19:54:16.646Z,44.00
2023-01-30T19:56:48.496Z,55.00
2023-01-30T19:59:17.347Z,50.00
2023-01-30T20:01:46.326Z,56.00
2023-01-30T20:04:14.863Z,67.00
2023-01-30T20:06:49.834Z,50.00
2023-01-30T20:09:19.433Z,54.00
2023-01-30T20:11:48.082Z,51.50
2023-01-30T20:14:16.681Z,69.00
2023-01-30T20:16:45.866Z,57.00
2023-01-30T20:19:16.917Z,55.00
2023-01-30T20:21:45.696Z,50.00
2023-01-30T20:24:15.609Z,61.00
2023-01-30T20:26:47.839Z,64.50
2023-01-30T20:29:18.134Z,51.50
2023-01-30T20:31:46.913Z,72.50
2023-01-30T20:34:15.892Z,60.50
2023-01-30T20:36:44.884Z,58.00
2023-01-30T20:39:14.349Z,54.50
2023-01-30T20:41:43.572Z,67.00
2023-01-30T20:44:14.829Z,51.50
2023-01-30T20:46:46.299Z,67.00
2023-01-30T20:49:17.741Z,39.00
2023-01-30T20:51:49.018Z,70.00
2023-01-30T20:54:20.212Z,44.50
2023-01-30T20:56:51.856Z,60.00
2023-01-30T20:59:27.372Z,70.00
2023-01-30T21:01:56.207Z,65.50
2023-01-30T21:04:24.876Z,71.50
2023-01-30T21:06:53.981Z,55.00
2023-01-30T21:09:23.797Z,57.50
2023-01-30T21:11:53.541Z,75.50
2023-01-30T21:14:23.011Z,70.00
2023-01-30T21:16:52.740Z,70.00
2023-01-30T21:19:22.704Z,82.00
2023-01-30T21:21:54.582Z,81.00
2023-01-30T21:24:27.448Z,93.50
2023-01-30T21:26:56.616Z,87.00
2023-01-30T21:29:27.715Z,93.50
2023-01-30T21:31:57.959Z,90.50
2023-01-30T21:34:26.622Z,102.00
2023-01-30T21:37:13.742Z,100.00
2023-01-30T21:40:01.262Z,97.00
2023-01-30T21:42:49.311Z,77.00
2023-01-30T21:45:20.919Z,78.33
2023-01-30T21:47:51.596Z,84.00
2023-01-30T21:50:20.790Z,73.00
2023-01-30T21:52:49.369Z,90.00
2023-01-30T21:55:18.662Z,87.50
2023-01-30T21:57:47.560Z,85.00
2023-01-30T22:00:16.349Z,84.00
2023-01-30T22:02:45.444Z,87.00
2023-01-30T22:05:14.028Z,75.00
2023-01-30T22:07:42.815Z,81.00
2023-01-30T22:10:11.706Z,82.00
2023-01-30T22:12:41.628Z,69.00
2023-01-30T22:15:10.734Z,71.00
2023-01-30T22:17:40.042Z,90.00
2023-01-30T22:20:10.231Z,74.00
2023-01-30T22:22:39.018Z,84.00
2023-01-30T22:25:08.729Z,76.00
2023-01-30T22:27:37.333Z,75.00
2023-01-30T22:30:06.817Z,61.00
2023-01-30T22:32:35.403Z,73.00
2023-01-30T22:35:04.599Z,67.00
2023-01-30T22:37:33.385Z,78.00
2023-01-30T22:40:02.076Z,61.00
2023-01-30T22:42:30.758Z,66.00
2023-01-30T22:44:59.443Z,80.00
2023-01-30T22:47:28.740Z,68.00
2023-01-30T22:49:57.322Z,72.00
2023-01-30T22:52:25.803Z,79.00
2023-01-30T22:54:54.425Z,74.00
2023-01-30T22:57:23.073Z,75.00
2023-01-30T22:59:52.682Z,68.50
2023-01-30T23:02:21.203Z,70.00
2023-01-30T23:04:50.671Z,82.00
2023-01-30T23:07:20.985Z,68.00
2023-01-30T23:09:49.629Z,73.00
2023-01-30T23:12:37.853Z,70.00
2023-01-30T23:15:07.674Z,68.00
2023-01-30T23:17:55.074Z,75.00
2023-01-30T23:20:23.739Z,73.00
2023-01-30T23:22:52.529Z,65.00
2023-01-30T23:25:21.649Z,75.33
2023-01-30T23:27:51.125Z,79.00
2023-01-30T23:30:19.925Z,69.00
2023-01-30T23:32:48.390Z,64.00
2023-01-30T23:35:17.612Z,69.00
2023-01-30T23:38:05.222Z,73.00
2023-01-30T23:40:33.902Z,72.50
2023-01-30T23:43:02.692Z,82.00
2023-01-30T23:45:31.389Z,70.00
2023-01-30T23:48:00.088Z,78.00
2023-01-30T23:50:28.851Z,69.00
2023-01-30T23:52:57.436Z,72.50
2023-01-30T23:55:26.122Z,66.00
2023-01-30T23:57:54.906Z,70.00
